sensor_id;sensor_type;location;lat;lon;timestamp;pressure;altitude;pressure_sealevel;temperature;humidity
30744;BME280;17486;46.738;7.622;2023-05-10T00:01:27;94966.56;;;14.93;67.68
30744;BME280;17486;46.738;7.622;2023-05-10T00:03:52;94962.59;;;15.00;67.94
30744;BME280;17486;46.738;7.622;2023-05-10T00:06:18;94948.31;;;15.04;68.13
30744;BME280;17486;46.738;7.622;2023-05-10T00:08:44;94943.78;;;15.06;67.96
30744;BME280;17486;46.738;7.622;2023-05-10T00:11:10;94953.81;;;15.13;67.97
30744;BME280;17486;46.738;7.622;2023-05-10T00:13:35;94964.09;;;15.16;68.51
30744;BME280;17486;46.738;7.622;2023-05-10T00:16:01;94966.50;;;15.19;68.21
30744;BME280;17486;46.738;7.622;2023-05-10T00:18:26;94958.75;;;15.17;67.58
30744;BME280;17486;46.738;7.622;2023-05-10T00:20:52;94951.84;;;15.16;67.90
30744;BME280;17486;46.738;7.622;2023-05-10T00:23:17;94946.34;;;15.19;68.18
30744;BME280;17486;46.738;7.622;2023-05-10T00:25:42;94949.09;;;15.18;67.64
30744;BME280;17486;46.738;7.622;2023-05-10T00:28:08;94958.41;;;15.22;67.57
30744;BME280;17486;46.738;7.622;2023-05-10T00:30:33;94949.59;;;15.23;67.51
30744;BME280;17486;46.738;7.622;2023-05-10T00:32:58;94952.59;;;15.30;67.47
30744;BME280;17486;46.738;7.622;2023-05-10T00:35:24;94947.59;;;15.27;66.70
30744;BME280;17486;46.738;7.622;2023-05-10T00:37:49;94954.56;;;15.15;67.02
30744;BME280;17486;46.738;7.622;2023-05-10T00:40:15;94960.69;;;15.02;67.28
30744;BME280;17486;46.738;7.622;2023-05-10T00:42:40;94950.66;;;14.96;67.86
30744;BME280;17486;46.738;7.622;2023-05-10T00:45:06;94956.00;;;14.95;67.74
30744;BME280;17486;46.738;7.622;2023-05-10T00:47:32;94953.19;;;14.85;67.21
30744;BME280;17486;46.738;7.622;2023-05-10T00:49:58;94950.91;;;14.80;67.94
30744;BME280;17486;46.738;7.622;2023-05-10T00:52:26;94946.53;;;14.81;68.13
30744;BME280;17486;46.738;7.622;2023-05-10T00:54:52;94942.34;;;14.78;68.20
30744;BME280;17486;46.738;7.622;2023-05-10T00:57:18;94955.81;;;14.85;67.93
30744;BME280;17486;46.738;7.622;2023-05-10T00:59:43;94956.56;;;14.87;67.65
30744;BME280;17486;46.738;7.622;2023-05-10T01:02:09;94958.84;;;14.91;67.45
30744;BME280;17486;46.738;7.622;2023-05-10T01:04:35;94948.97;;;14.95;67.87
30744;BME280;17486;46.738;7.622;2023-05-10T01:07:00;94936.22;;;14.90;67.70
30744;BME280;17486;46.738;7.622;2023-05-10T01:09:26;94942.06;;;14.94;67.50
30744;BME280;17486;46.738;7.622;2023-05-10T01:11:52;94944.91;;;14.91;67.33
30744;BME280;17486;46.738;7.622;2023-05-10T01:14:19;94940.34;;;14.82;67.21
30744;BME280;17486;46.738;7.622;2023-05-10T01:16:46;94952.25;;;14.86;67.34
30744;BME280;17486;46.738;7.622;2023-05-10T01:24:58;94956.56;;;14.87;67.36
30744;BME280;17486;46.738;7.622;2023-05-10T01:27:53;94956.75;;;14.84;67.17
30744;BME280;17486;46.738;7.622;2023-05-10T01:33:56;94950.97;;;14.67;67.26
30744;BME280;17486;46.738;7.622;2023-05-10T01:39:02;94955.84;;;14.59;67.61
30744;BME280;17486;46.738;7.622;2023-05-10T01:44:24;94954.63;;;14.65;67.10
30744;BME280;17486;46.738;7.622;2023-05-10T01:47:01;94953.34;;;14.70;67.15
30744;BME280;17486;46.738;7.622;2023-05-10T01:49:32;94952.06;;;14.76;67.24
30744;BME280;17486;46.738;7.622;2023-05-10T01:52:11;94965.28;;;14.74;66.94
30744;BME280;17486;46.738;7.622;2023-05-10T01:54:42;94971.03;;;14.80;66.71
30744;BME280;17486;46.738;7.622;2023-05-10T01:57:10;94969.88;;;14.71;66.69
30744;BME280;17486;46.738;7.622;2023-05-10T01:59:40;94970.94;;;14.68;66.89
30744;BME280;17486;46.738;7.622;2023-05-10T02:02:08;94968.66;;;14.64;66.94
30744;BME280;17486;46.738;7.622;2023-05-10T02:04:38;94958.69;;;14.56;67.74
30744;BME280;17486;46.738;7.622;2023-05-10T02:07:05;94970.38;;;14.63;68.17
30744;BME280;17486;46.738;7.622;2023-05-10T02:09:32;94971.16;;;14.65;68.49
30744;BME280;17486;46.738;7.622;2023-05-10T02:12:01;94965.91;;;14.65;68.40
30744;BME280;17486;46.738;7.622;2023-05-10T02:14:28;94954.78;;;14.62;68.69
30744;BME280;17486;46.738;7.622;2023-05-10T02:16:55;94963.06;;;14.68;68.61
30744;BME280;17486;46.738;7.622;2023-05-10T02:19:21;94946.94;;;14.62;67.74
30744;BME280;17486;46.738;7.622;2023-05-10T02:21:49;94958.25;;;14.62;67.43
30744;BME280;17486;46.738;7.622;2023-05-10T02:24:17;94956.59;;;14.61;67.88
30744;BME280;17486;46.738;7.622;2023-05-10T02:26:44;94951.16;;;14.64;67.73
30744;BME280;17486;46.738;7.622;2023-05-10T02:29:10;94948.41;;;14.66;67.68
30744;BME280;17486;46.738;7.622;2023-05-10T02:31:37;94949.16;;;14.68;67.77
30744;BME280;17486;46.738;7.622;2023-05-10T02:34:06;94951.25;;;14.63;66.57
30744;BME280;17486;46.738;7.622;2023-05-10T02:36:32;94949.38;;;14.52;66.73
30744;BME280;17486;46.738;7.622;2023-05-10T02:38:59;94945.50;;;14.45;66.98
30744;BME280;17486;46.738;7.622;2023-05-10T02:41:27;94953.59;;;14.41;66.75
30744;BME280;17486;46.738;7.622;2023-05-10T02:43:57;94941.84;;;14.34;67.18
30744;BME280;17486;46.738;7.622;2023-05-10T02:46:24;94951.19;;;14.38;67.08
30744;BME280;17486;46.738;7.622;2023-05-10T02:48:49;94945.22;;;14.36;66.93
30744;BME280;17486;46.738;7.622;2023-05-10T02:51:16;94943.34;;;14.38;66.48
30744;BME280;17486;46.738;7.622;2023-05-10T02:53:44;94943.34;;;14.38;66.98
30744;BME280;17486;46.738;7.622;2023-05-10T02:56:17;94951.19;;;14.38;66.78
30744;BME280;17486;46.738;7.622;2023-05-10T02:58:45;94952.84;;;14.39;66.71
30744;BME280;17486;46.738;7.622;2023-05-10T03:01:10;94957.75;;;14.44;66.68
30744;BME280;17486;46.738;7.622;2023-05-10T03:03:36;94956.59;;;14.48;66.96
30744;BME280;17486;46.738;7.622;2023-05-10T03:06:01;94959.00;;;14.51;67.40
30744;BME280;17486;46.738;7.622;2023-05-10T03:08:26;94958.28;;;14.49;67.18
30744;BME280;17486;46.738;7.622;2023-05-10T03:13:32;94964.75;;;14.56;67.61
30744;BME280;17486;46.738;7.622;2023-05-10T03:16:17;94963.19;;;14.54;67.56
30744;BME280;17486;46.738;7.622;2023-05-10T03:19:18;94954.53;;;14.40;67.32
30744;BME280;17486;46.738;7.622;2023-05-10T03:21:50;94968.75;;;14.36;67.17
30744;BME280;17486;46.738;7.622;2023-05-10T03:24:20;94966.66;;;14.29;67.42
30744;BME280;17486;46.738;7.622;2023-05-10T03:26:47;94977.66;;;14.34;67.54
30744;BME280;17486;46.738;7.622;2023-05-10T03:29:14;94972.66;;;14.31;67.91
30744;BME280;17486;46.738;7.622;2023-05-10T03:31:40;94977.44;;;14.37;67.91
30744;BME280;17486;46.738;7.622;2023-05-10T03:34:06;94984.34;;;14.38;67.56
30744;BME280;17486;46.738;7.622;2023-05-10T03:36:32;94990.31;;;14.40;67.99
30744;BME280;17486;46.738;7.622;2023-05-10T03:38:57;94995.44;;;14.41;68.09
30744;BME280;17486;46.738;7.622;2023-05-10T03:41:23;94998.06;;;14.41;68.11
30744;BME280;17486;46.738;7.622;2023-05-10T03:43:48;94999.75;;;14.42;67.65
30744;BME280;17486;46.738;7.622;2023-05-10T03:46:14;94998.06;;;14.41;67.58
30744;BME280;17486;46.738;7.622;2023-05-10T03:48:39;94992.09;;;14.39;68.14
30744;BME280;17486;46.738;7.622;2023-05-10T03:51:04;94992.31;;;14.36;68.31
30744;BME280;17486;46.738;7.622;2023-05-10T03:53:30;94996.78;;;14.34;68.48
30744;BME280;17486;46.738;7.622;2023-05-10T03:55:55;94996.09;;;14.32;68.11
30744;BME280;17486;46.738;7.622;2023-05-10T03:58:20;94996.19;;;14.31;68.62
30744;BME280;17486;46.738;7.622;2023-05-10T04:00:46;95000.16;;;14.36;69.10
30744;BME280;17486;46.738;7.622;2023-05-10T04:03:12;94996.19;;;14.31;68.86
30744;BME280;17486;46.738;7.622;2023-05-10T04:05:38;94995.66;;;14.25;68.63
30744;BME280;17486;46.738;7.622;2023-05-10T04:08:03;94988.34;;;14.18;68.57
30744;BME280;17486;46.738;7.622;2023-05-10T04:10:29;94990.97;;;14.18;68.14
30744;BME280;17486;46.738;7.622;2023-05-10T04:12:54;94991.16;;;14.15;68.36
30744;BME280;17486;46.738;7.622;2023-05-10T04:15:20;94995.78;;;14.11;68.04
30744;BME280;17486;46.738;7.622;2023-05-10T04:17:45;94994.19;;;14.08;68.27
30744;BME280;17486;46.738;7.622;2023-05-10T04:20:11;94991.59;;;14.08;68.25
30744;BME280;17486;46.738;7.622;2023-05-10T04:22:37;94965.94;;;14.01;68.99
30744;BME280;17486;46.738;7.622;2023-05-10T04:25:03;94993.44;;;14.06;69.05
30744;BME280;17486;46.738;7.622;2023-05-10T04:27:29;94976.00;;;13.94;68.95
30744;BME280;17486;46.738;7.622;2023-05-10T04:29:54;94990.63;;;13.97;69.02
30744;BME280;17486;46.738;7.622;2023-05-10T04:32:20;94971.56;;;13.82;69.40
30744;BME280;17486;46.738;7.622;2023-05-10T04:34:45;94989.88;;;13.82;69.79
30744;BME280;17486;46.738;7.622;2023-05-10T04:37:11;94985.91;;;13.76;69.82
30744;BME280;17486;46.738;7.622;2023-05-10T04:39:36;94954.81;;;13.58;69.90
30744;BME280;17486;46.738;7.622;2023-05-10T04:42:05;94991.94;;;13.76;69.66
30744;BME280;17486;46.738;7.622;2023-05-10T04:44:34;94985.69;;;13.79;70.08
30744;BME280;17486;46.738;7.622;2023-05-10T04:47:00;94989.03;;;13.81;69.75
30744;BME280;17486;46.738;7.622;2023-05-10T04:49:27;94976.47;;;13.73;69.73
30744;BME280;17486;46.738;7.622;2023-05-10T04:51:52;94997.41;;;13.86;69.25
30744;BME280;17486;46.738;7.622;2023-05-10T04:54:18;95000.13;;;13.85;69.59
30744;BME280;17486;46.738;7.622;2023-05-10T04:56:43;95004.09;;;13.90;69.72
30744;BME280;17486;46.738;7.622;2023-05-10T04:59:08;95002.22;;;13.92;69.56
30744;BME280;17486;46.738;7.622;2023-05-10T05:01:34;95002.97;;;13.95;69.66
30744;BME280;17486;46.738;7.622;2023-05-10T05:03:59;95002.66;;;13.99;69.32
30744;BME280;17486;46.738;7.622;2023-05-10T05:06:25;95011.88;;;14.05;69.23
30744;BME280;17486;46.738;7.622;2023-05-10T05:08:52;95003.28;;;14.03;69.02
30744;BME280;17486;46.738;7.622;2023-05-10T05:11:17;95011.25;;;14.14;68.63
30744;BME280;17486;46.738;7.622;2023-05-10T05:13:43;95014.69;;;14.15;68.35
30744;BME280;17486;46.738;7.622;2023-05-10T05:16:08;95010.19;;;14.17;68.55
30744;BME280;17486;46.738;7.622;2023-05-10T05:18:34;94985.81;;;14.03;68.16
30744;BME280;17486;46.738;7.622;2023-05-10T05:20:59;95019.63;;;14.19;68.39
30744;BME280;17486;46.738;7.622;2023-05-10T05:23:25;95022.34;;;14.18;68.25
30744;BME280;17486;46.738;7.622;2023-05-10T05:25:52;95007.56;;;14.04;68.75
30744;BME280;17486;46.738;7.622;2023-05-10T05:28:18;95024.22;;;14.16;68.84
30744;BME280;17486;46.738;7.622;2023-05-10T05:30:43;95030.31;;;14.16;68.80
30744;BME280;17486;46.738;7.622;2023-05-10T05:33:08;95031.13;;;14.17;68.92
30744;BME280;17486;46.738;7.622;2023-05-10T05:35:34;95014.91;;;14.12;69.18
30744;BME280;17486;46.738;7.622;2023-05-10T05:37:59;95029.44;;;14.16;68.67
30744;BME280;17486;46.738;7.622;2023-05-10T05:40:25;95029.94;;;14.08;68.48
30744;BME280;17486;46.738;7.622;2023-05-10T05:42:50;95027.78;;;14.02;68.32
30744;BME280;17486;46.738;7.622;2023-05-10T05:45:15;95028.88;;;13.98;68.57
30744;BME280;17486;46.738;7.622;2023-05-10T05:47:41;95034.03;;;13.99;68.61
30744;BME280;17486;46.738;7.622;2023-05-10T05:50:06;95025.03;;;13.90;68.88
30744;BME280;17486;46.738;7.622;2023-05-10T05:52:32;94996.34;;;13.76;68.84
30744;BME280;17486;46.738;7.622;2023-05-10T05:54:57;95051.72;;;14.08;68.98
30744;BME280;17486;46.738;7.622;2023-05-10T05:57:23;95040.94;;;14.13;68.97
30744;BME280;17486;46.738;7.622;2023-05-10T05:59:48;95045.03;;;14.17;69.34
30744;BME280;17486;46.738;7.622;2023-05-10T06:02:14;95021.81;;;14.13;69.63
30744;BME280;17486;46.738;7.622;2023-05-10T06:04:39;95043.56;;;14.26;68.95
30744;BME280;17486;46.738;7.622;2023-05-10T06:07:04;95033.44;;;14.21;68.91
30744;BME280;17486;46.738;7.622;2023-05-10T06:09:30;95051.13;;;14.31;68.86
30744;BME280;17486;46.738;7.622;2023-05-10T06:11:55;95048.41;;;14.32;68.86
30744;BME280;17486;46.738;7.622;2023-05-10T06:14:21;95055.31;;;14.33;68.89
30744;BME280;17486;46.738;7.622;2023-05-10T06:16:47;95047.34;;;14.22;68.66
30744;BME280;17486;46.738;7.622;2023-05-10T06:19:12;95073.63;;;14.33;68.86
30744;BME280;17486;46.738;7.622;2023-05-10T06:21:38;95060.22;;;14.25;68.61
30744;BME280;17486;46.738;7.622;2023-05-10T06:24:03;95069.44;;;14.31;68.88
30744;BME280;17486;46.738;7.622;2023-05-10T06:26:29;95067.22;;;14.24;68.83
30744;BME280;17486;46.738;7.622;2023-05-10T06:28:55;95063.97;;;14.21;68.94
30744;BME280;17486;46.738;7.622;2023-05-10T06:31:20;95061.69;;;14.16;69.19
30744;BME280;17486;46.738;7.622;2023-05-10T06:33:46;95071.50;;;14.13;69.29
30744;BME280;17486;46.738;7.622;2023-05-10T06:36:11;95071.69;;;14.09;68.63
30744;BME280;17486;46.738;7.622;2023-05-10T06:38:36;95070.03;;;14.08;67.79
30744;BME280;17486;46.738;7.622;2023-05-10T06:41:02;95065.63;;;14.09;67.04
30744;BME280;17486;46.738;7.622;2023-05-10T06:43:28;95070.16;;;14.07;66.71
30744;BME280;17486;46.738;7.622;2023-05-10T06:45:53;95051.38;;;14.00;66.54
30744;BME280;17486;46.738;7.622;2023-05-10T06:48:19;95057.91;;;14.07;65.52
30744;BME280;17486;46.738;7.622;2023-05-10T06:50:44;95059.56;;;14.08;65.09
30744;BME280;17486;46.738;7.622;2023-05-10T06:53:10;95065.53;;;14.10;64.58
30744;BME280;17486;46.738;7.622;2023-05-10T06:55:36;95077.66;;;14.12;64.26
30744;BME280;17486;46.738;7.622;2023-05-10T06:58:02;95079.34;;;14.13;64.39
30744;BME280;17486;46.738;7.622;2023-05-10T07:00:27;95084.88;;;14.08;63.04
30744;BME280;17486;46.738;7.622;2023-05-10T07:02:52;95083.84;;;14.10;62.86
30744;BME280;17486;46.738;7.622;2023-05-10T07:05:18;95061.00;;;14.00;62.58
30744;BME280;17486;46.738;7.622;2023-05-10T07:07:43;95080.19;;;14.13;62.39
30744;BME280;17486;46.738;7.622;2023-05-10T07:10:09;95082.50;;;14.18;63.06
30744;BME280;17486;46.738;7.622;2023-05-10T07:12:34;95071.28;;;14.16;63.28
30744;BME280;17486;46.738;7.622;2023-05-10T07:15:00;95082.72;;;14.27;62.61
30744;BME280;17486;46.738;7.622;2023-05-10T07:17:25;95086.47;;;14.23;62.75
30744;BME280;17486;46.738;7.622;2023-05-10T07:19:51;95097.38;;;14.30;62.25
30744;BME280;17486;46.738;7.622;2023-05-10T07:22:16;95086.38;;;14.25;61.66
30744;BME280;17486;46.738;7.622;2023-05-10T07:24:42;95093.59;;;14.21;61.00
30744;BME280;17486;46.738;7.622;2023-05-10T07:27:08;95099.13;;;14.17;61.55
30744;BME280;17486;46.738;7.622;2023-05-10T07:29:34;95104.56;;;14.14;61.07
30744;BME280;17486;46.738;7.622;2023-05-10T07:31:59;95095.22;;;14.09;60.53
30744;BME280;17486;46.738;7.622;2023-05-10T07:34:25;95076.56;;;13.88;60.99
30744;BME280;17486;46.738;7.622;2023-05-10T07:36:51;95078.03;;;13.92;61.45
30744;BME280;17486;46.738;7.622;2023-05-10T07:39:16;95101.19;;;14.12;61.87
30744;BME280;17486;46.738;7.622;2023-05-10T07:41:42;95081.94;;;14.00;62.02
30744;BME280;17486;46.738;7.622;2023-05-10T07:44:07;95105.72;;;14.22;61.88
30744;BME280;17486;46.738;7.622;2023-05-10T07:46:32;95102.50;;;14.19;60.59
30744;BME280;17486;46.738;7.622;2023-05-10T07:48:58;95100.59;;;14.21;60.18
30744;BME280;17486;46.738;7.622;2023-05-10T07:51:23;95098.50;;;14.26;60.23
30744;BME280;17486;46.738;7.622;2023-05-10T07:53:49;95096.31;;;14.33;60.26
30744;BME280;17486;46.738;7.622;2023-05-10T07:58:46;95061.88;;;14.26;60.73
30744;BME280;17486;46.738;7.622;2023-05-10T08:01:11;95114.56;;;14.60;60.25
30744;BME280;17486;46.738;7.622;2023-05-10T08:03:36;95106.22;;;14.68;60.06
30744;BME280;17486;46.738;7.622;2023-05-10T08:06:02;95100.16;;;14.67;60.55
30744;BME280;17486;46.738;7.622;2023-05-10T08:08:27;95110.59;;;14.80;61.42
30744;BME280;17486;46.738;7.622;2023-05-10T08:10:52;95106.94;;;14.83;61.17
30744;BME280;17486;46.738;7.622;2023-05-10T08:13:18;95101.41;;;14.87;61.44
30744;BME280;17486;46.738;7.622;2023-05-10T08:15:43;95098.56;;;14.90;61.16
30744;BME280;17486;46.738;7.622;2023-05-10T08:18:08;95100.13;;;14.93;60.67
30744;BME280;17486;46.738;7.622;2023-05-10T08:20:34;95100.88;;;14.95;60.40
30744;BME280;17486;46.738;7.622;2023-05-10T08:22:59;95105.06;;;14.98;60.48
30744;BME280;17486;46.738;7.622;2023-05-10T08:25:24;95091.63;;;15.02;59.82
30744;BME280;17486;46.738;7.622;2023-05-10T08:27:50;95091.63;;;15.02;59.44
30744;BME280;17486;46.738;7.622;2023-05-10T08:30:16;95088.59;;;15.08;59.27
30744;BME280;17486;46.738;7.622;2023-05-10T08:32:41;95089.34;;;15.11;59.14
30744;BME280;17486;46.738;7.622;2023-05-10T08:35:07;95100.63;;;15.11;59.63
30744;BME280;17486;46.738;7.622;2023-05-10T08:37:32;95089.09;;;15.14;59.54
30744;BME280;17486;46.738;7.622;2023-05-10T08:39:58;95079.56;;;15.13;59.20
30744;BME280;17486;46.738;7.622;2023-05-10T08:42:25;95092.88;;;15.22;58.99
30744;BME280;17486;46.738;7.622;2023-05-10T08:44:54;95085.41;;;15.29;58.63
30744;BME280;17486;46.738;7.622;2023-05-10T08:47:20;95081.94;;;15.29;59.07
30744;BME280;17486;46.738;7.622;2023-05-10T08:49:47;95082.94;;;15.39;59.50
30744;BME280;17486;46.738;7.622;2023-05-10T08:52:16;95086.81;;;15.46;59.51
30744;BME280;17486;46.738;7.622;2023-05-10T08:54:42;95092.38;;;15.41;59.83
30744;BME280;17486;46.738;7.622;2023-05-10T08:57:09;95088.06;;;15.40;61.23
30744;BME280;17486;46.738;7.622;2023-05-10T08:59:35;95091.94;;;15.48;60.97
30744;BME280;17486;46.738;7.622;2023-05-10T09:02:04;95077.91;;;15.49;61.20
30744;BME280;17486;46.738;7.622;2023-05-10T09:04:30;95090.19;;;15.72;60.56
30744;BME280;17486;46.738;7.622;2023-05-10T09:06:56;95084.19;;;15.83;58.72
30744;BME280;17486;46.738;7.622;2023-05-10T09:09:23;95090.31;;;15.95;58.57
30744;BME280;17486;46.738;7.622;2023-05-10T09:11:49;95089.13;;;15.99;58.50
30744;BME280;17486;46.738;7.622;2023-05-10T09:14:15;95082.13;;;16.00;58.82
30744;BME280;17486;46.738;7.622;2023-05-10T09:16:41;95087.06;;;16.16;57.96
30744;BME280;17486;46.738;7.622;2023-05-10T09:19:07;95095.53;;;16.19;57.24
30744;BME280;17486;46.738;7.622;2023-05-10T09:21:35;95104.97;;;16.22;57.22
30744;BME280;17486;46.738;7.622;2023-05-10T09:24:04;95093.25;;;16.15;55.56
30744;BME280;17486;46.738;7.622;2023-05-10T09:26:30;95079.59;;;15.98;55.74
30744;BME280;17486;46.738;7.622;2023-05-10T09:28:59;95098.34;;;16.05;54.33
30744;BME280;17486;46.738;7.622;2023-05-10T09:31:43;95087.66;;;15.84;53.86
30744;BME280;17486;46.738;7.622;2023-05-10T09:34:08;95098.97;;;15.84;53.10
30744;BME280;17486;46.738;7.622;2023-05-10T09:36:34;95101.06;;;15.79;53.35
30744;BME280;17486;46.738;7.622;2023-05-10T09:38:59;95102.34;;;15.73;52.91
30744;BME280;17486;46.738;7.622;2023-05-10T09:41:25;95096.50;;;15.70;52.96
30744;BME280;17486;46.738;7.622;2023-05-10T09:43:55;95098.59;;;15.65;53.65
30744;BME280;17486;46.738;7.622;2023-05-10T09:46:21;95070.59;;;15.41;53.61
30744;BME280;17486;46.738;7.622;2023-05-10T09:48:47;95100.94;;;15.56;54.21
30744;BME280;17486;46.738;7.622;2023-05-10T09:51:21;95099.94;;;15.46;53.50
30744;BME280;17486;46.738;7.622;2023-05-10T09:53:46;95096.03;;;15.52;53.30
30744;BME280;17486;46.738;7.622;2023-05-10T09:56:12;95059.72;;;15.34;53.36
30744;BME280;17486;46.738;7.622;2023-05-10T09:58:37;95092.13;;;15.57;53.11
30744;BME280;17486;46.738;7.622;2023-05-10T10:01:03;95086.66;;;15.61;52.98
30744;BME280;17486;46.738;7.622;2023-05-10T10:03:29;95089.31;;;15.72;53.16
30744;BME280;17486;46.738;7.622;2023-05-10T10:05:55;95080.31;;;15.76;53.06
30744;BME280;17486;46.738;7.622;2023-05-10T10:08:21;95090.19;;;15.72;52.46
30744;BME280;17486;46.738;7.622;2023-05-10T10:10:47;95100.03;;;15.69;52.71
30744;BME280;17486;46.738;7.622;2023-05-10T10:13:13;95100.72;;;15.59;52.51
30744;BME280;17486;46.738;7.622;2023-05-10T10:15:38;95087.22;;;15.53;52.87
30744;BME280;17486;46.738;7.622;2023-05-10T10:18:05;95099.25;;;15.55;53.32
30744;BME280;17486;46.738;7.622;2023-05-10T10:20:30;95093.78;;;15.58;53.52
30744;BME280;17486;46.738;7.622;2023-05-10T10:22:56;95094.53;;;15.61;53.86
30744;BME280;17486;46.738;7.622;2023-05-10T10:25:21;95100.56;;;15.50;53.94
30744;BME280;17486;46.738;7.622;2023-05-10T10:30:45;95108.81;;;15.56;54.28
30744;BME280;17486;46.738;7.622;2023-05-10T10:36:05;95094.91;;;15.67;53.74
30744;BME280;17486;46.738;7.622;2023-05-10T10:41:35;95081.06;;;15.65;54.28
30744;BME280;17486;46.738;7.622;2023-05-10T10:55:08;95085.41;;;16.26;52.58
30744;BME280;17486;46.738;7.622;2023-05-10T11:02:48;95077.34;;;16.40;52.51
30744;BME280;17486;46.738;7.622;2023-05-10T11:05:34;95077.34;;;16.40;52.32
30744;BME280;17486;46.738;7.622;2023-05-10T11:08:07;95077.47;;;16.39;51.25
30744;BME280;17486;46.738;7.622;2023-05-10T11:10:33;95076.13;;;16.33;51.03
30744;BME280;17486;46.738;7.622;2023-05-10T11:13:03;95080.66;;;16.31;51.24
30744;BME280;17486;46.738;7.622;2023-05-10T11:15:35;95072.56;;;16.34;51.01
30744;BME280;17486;46.738;7.622;2023-05-10T11:18:21;95069.81;;;16.36;51.04
30744;BME280;17486;46.738;7.622;2023-05-10T11:20:58;95071.16;;;16.41;50.66
30744;BME280;17486;46.738;7.622;2023-05-10T11:26:09;95075.69;;;16.51;50.82
30744;BME280;17486;46.738;7.622;2023-05-10T11:28:44;95065.78;;;16.54;50.88
30744;BME280;17486;46.738;7.622;2023-05-10T11:31:10;95063.75;;;16.58;50.72
30744;BME280;17486;46.738;7.622;2023-05-10T11:33:50;95062.09;;;16.57;50.75
30744;BME280;17486;46.738;7.622;2023-05-10T11:36:35;95066.16;;;16.61;51.14
30744;BME280;17486;46.738;7.622;2023-05-10T11:39:01;95058.66;;;16.68;51.52
30744;BME280;17486;46.738;7.622;2023-05-10T11:41:29;95066.91;;;16.74;51.37
30744;BME280;17486;46.738;7.622;2023-05-10T11:43:55;95066.03;;;16.74;50.53
30744;BME280;17486;46.738;7.622;2023-05-10T11:46:22;95068.94;;;16.82;50.97
30744;BME280;17486;46.738;7.622;2023-05-10T11:48:49;95054.00;;;16.83;51.11
30744;BME280;17486;46.738;7.622;2023-05-10T11:51:20;95066.78;;;16.99;50.80
30744;BME280;17486;46.738;7.622;2023-05-10T11:53:45;95071.31;;;17.08;51.23
30744;BME280;17486;46.738;7.622;2023-05-10T11:56:11;95068.34;;;17.01;49.84
30744;BME280;17486;46.738;7.622;2023-05-10T11:58:37;95063.69;;;17.05;49.94
30744;BME280;17486;46.738;7.622;2023-05-10T12:01:05;95061.28;;;17.13;50.33
30744;BME280;17486;46.738;7.622;2023-05-10T12:03:31;95059.03;;;17.09;49.75
30744;BME280;17486;46.738;7.622;2023-05-10T12:05:57;95066.66;;;17.12;49.46
30744;BME280;17486;46.738;7.622;2023-05-10T12:08:26;95064.78;;;17.02;49.12
30744;BME280;17486;46.738;7.622;2023-05-10T12:11:09;95070.97;;;17.01;49.49
30744;BME280;17486;46.738;7.622;2023-05-10T12:13:38;95065.38;;;17.06;49.61
30744;BME280;17486;46.738;7.622;2023-05-10T12:16:28;95084.13;;;17.01;48.96
30744;BME280;17486;46.738;7.622;2023-05-10T12:18:57;95073.59;;;17.01;47.20
30744;BME280;17486;46.738;7.622;2023-05-10T12:21:23;95075.53;;;16.99;46.68
30744;BME280;17486;46.738;7.622;2023-05-10T12:23:53;95072.19;;;16.97;46.58
30744;BME280;17486;46.738;7.622;2023-05-10T12:26:25;95063.94;;;16.90;46.21
30744;BME280;17486;46.738;7.622;2023-05-10T12:29:12;95069.50;;;16.86;46.43
30744;BME280;17486;46.738;7.622;2023-05-10T12:31:55;95063.44;;;16.85;46.46
30744;BME280;17486;46.738;7.622;2023-05-10T12:34:31;95060.06;;;16.83;46.13
30744;BME280;17486;46.738;7.622;2023-05-10T12:36:56;95063.69;;;16.82;46.22
30744;BME280;17486;46.738;7.622;2023-05-10T12:39:23;95056.97;;;16.89;45.60
30744;BME280;17486;46.738;7.622;2023-05-10T12:41:49;95056.06;;;17.02;45.24
30744;BME280;17486;46.738;7.622;2023-05-10T12:44:14;95050.31;;;17.08;44.56
30744;BME280;17486;46.738;7.622;2023-05-10T12:46:40;95041.94;;;17.14;45.17
30744;BME280;17486;46.738;7.622;2023-05-10T12:49:05;95040.13;;;17.15;45.22
30744;BME280;17486;46.738;7.622;2023-05-10T12:51:30;95030.00;;;17.10;45.21
30744;BME280;17486;46.738;7.622;2023-05-10T12:53:56;95020.56;;;17.07;45.81
30744;BME280;17486;46.738;7.622;2023-05-10T12:56:21;95039.31;;;17.26;44.60
30744;BME280;17486;46.738;7.622;2023-05-10T12:58:47;95041.59;;;17.19;44.13
30744;BME280;17486;46.738;7.622;2023-05-10T13:01:13;95044.44;;;17.16;44.25
30744;BME280;17486;46.738;7.622;2023-05-10T13:03:39;95050.31;;;17.19;45.54
30744;BME280;17486;46.738;7.622;2023-05-10T13:06:05;95064.03;;;17.23;47.09
30744;BME280;17486;46.738;7.622;2023-05-10T13:08:31;95052.31;;;16.82;48.38
30744;BME280;17486;46.738;7.622;2023-05-10T13:10:59;95050.41;;;16.84;47.82
30744;BME280;17486;46.738;7.622;2023-05-10T13:13:25;95053.25;;;16.81;48.64
30744;BME280;17486;46.738;7.622;2023-05-10T13:15:50;95049.00;;;16.80;48.33
30744;BME280;17486;46.738;7.622;2023-05-10T13:18:15;95047.72;;;16.97;48.29
30744;BME280;17486;46.738;7.622;2023-05-10T13:20:41;95052.69;;;17.22;49.25
30744;BME280;17486;46.738;7.622;2023-05-10T13:23:08;95058.47;;;17.49;48.91
30744;BME280;17486;46.738;7.622;2023-05-10T13:25:33;95052.50;;;17.58;47.83
30744;BME280;17486;46.738;7.622;2023-05-10T13:27:59;95054.16;;;17.59;48.20
30744;BME280;17486;46.738;7.622;2023-05-10T13:30:24;95056.78;;;17.59;48.46
30744;BME280;17486;46.738;7.622;2023-05-10T13:32:50;95062.03;;;17.59;48.10
30744;BME280;17486;46.738;7.622;2023-05-10T13:35:15;95062.03;;;17.59;47.94
30744;BME280;17486;46.738;7.622;2023-05-10T13:37:40;95055.84;;;17.49;47.99
30744;BME280;17486;46.738;7.622;2023-05-10T13:40:06;95056.59;;;17.39;48.31
30744;BME280;17486;46.738;7.622;2023-05-10T13:42:32;95065.22;;;17.42;48.88
30744;BME280;17486;46.738;7.622;2023-05-10T13:44:59;95062.84;;;17.38;48.51
30744;BME280;17486;46.738;7.622;2023-05-10T13:47:26;95064.59;;;17.38;49.03